sensor_id;sensor_type;location;lat;lon;timestamp;pressure;altitude;pressure_sealevel;temperature;humidity
51239;BME280;38154;47.548;18.828;2023-03-01T00:01:16;99744.72;;;3.41;84.01
51239;BME280;38154;47.548;18.828;2023-03-01T00:03:42;99753.38;;;3.43;83.41
51239;BME280;38154;47.548;18.828;2023-03-01T00:06:09;99747.53;;;3.47;85.03
51239;BME280;38154;47.548;18.828;2023-03-01T00:08:35;99753.03;;;3.35;85.72
51239;BME280;38154;47.548;18.828;2023-03-01T00:11:02;99751.28;;;3.34;87.35
51239;BME280;38154;47.548;18.828;2023-03-01T00:13:29;99754.69;;;3.15;88.03
51239;BME280;38154;47.548;18.828;2023-03-01T00:15:55;99748.16;;;3.04;86.76
51239;BME280;38154;47.548;18.828;2023-03-01T00:18:21;99758.97;;;3.14;87.02
51239;BME280;38154;47.548;18.828;2023-03-01T00:20:51;99757.72;;;3.06;87.85
51239;BME280;38154;47.548;18.828;2023-03-01T00:23:17;99756.53;;;3.00;88.67
51239;BME280;38154;47.548;18.828;2023-03-01T00:25:43;99758.19;;;2.97;89.64
51239;BME280;38154;47.548;18.828;2023-03-01T00:28:09;99755.53;;;2.96;88.27
51239;BME280;38154;47.548;18.828;2023-03-01T00:30:35;99759.94;;;2.99;89.58
51239;BME280;38154;47.548;18.828;2023-03-01T00:33:01;99762.38;;;2.95;89.65
51239;BME280;38154;47.548;18.828;2023-03-01T00:35:26;99761.53;;;2.96;92.80
51239;BME280;38154;47.548;18.828;2023-03-01T00:37:52;99760.38;;;2.90;92.53
51239;BME280;38154;47.548;18.828;2023-03-01T00:40:34;99761.44;;;2.93;92.86
51239;BME280;38154;47.548;18.828;2023-03-01T00:43:00;99769.16;;;2.93;92.07
51239;BME280;38154;47.548;18.828;2023-03-01T00:45:26;99770.91;;;2.94;90.18
51239;BME280;38154;47.548;18.828;2023-03-01T00:47:52;99765.81;;;2.96;91.25
51239;BME280;38154;47.548;18.828;2023-03-01T00:50:19;99764.87;;;2.94;92.17
51239;BME280;38154;47.548;18.828;2023-03-01T00:52:45;99767.59;;;2.97;92.02
51239;BME280;38154;47.548;18.828;2023-03-01T00:55:11;99772.00;;;3.00;90.83
51239;BME280;38154;47.548;18.828;2023-03-01T00:57:37;99769.28;;;2.96;92.45
51239;BME280;38154;47.548;18.828;2023-03-01T01:00:05;99764.34;;;3.01;93.43
51239;BME280;38154;47.548;18.828;2023-03-01T01:02:32;99758.25;;;2.99;93.29
51239;BME280;38154;47.548;18.828;2023-03-01T01:04:59;99761.53;;;2.96;92.59
51239;BME280;38154;47.548;18.828;2023-03-01T01:07:25;99760.69;;;2.96;94.67
51239;BME280;38154;47.548;18.828;2023-03-01T01:09:51;99754.66;;;2.95;96.94
51239;BME280;38154;47.548;18.828;2023-03-01T01:12:17;99745.75;;;2.89;95.65
51239;BME280;38154;47.548;18.828;2023-03-01T01:14:43;99742.94;;;2.84;97.70
51239;BME280;38154;47.548;18.828;2023-03-01T01:17:09;99740.22;;;2.81;97.46
51239;BME280;38154;47.548;18.828;2023-03-01T01:19:35;99744.34;;;2.77;95.97
51239;BME280;38154;47.548;18.828;2023-03-01T01:22:01;99744.78;;;2.87;94.94
51239;BME280;38154;47.548;18.828;2023-03-01T01:24:27;99739.56;;;2.85;93.54
51239;BME280;38154;47.548;18.828;2023-03-01T01:26:52;99734.25;;;2.82;96.38
51239;BME280;38154;47.548;18.828;2023-03-01T01:29:18;99731.63;;;2.81;97.00
51239;BME280;38154;47.548;18.828;2023-03-01T01:31:45;99733.41;;;2.82;95.16
51239;BME280;38154;47.548;18.828;2023-03-01T01:34:17;99726.69;;;2.85;93.26
51239;BME280;38154;47.548;18.828;2023-03-01T01:36:43;99726.53;;;2.82;94.25
51239;BME280;38154;47.548;18.828;2023-03-01T01:39:09;99718.59;;;2.77;94.68
51239;BME280;38154;47.548;18.828;2023-03-01T01:41:40;99720.78;;;2.88;95.30
51239;BME280;38154;47.548;18.828;2023-03-01T01:44:25;99714.84;;;2.89;95.81
51239;BME280;38154;47.548;18.828;2023-03-01T01:47:05;99708.62;;;3.03;96.18
51239;BME280;38154;47.548;18.828;2023-03-01T01:49:44;99711.47;;;3.09;96.58
51239;BME280;38154;47.548;18.828;2023-03-01T01:52:24;99706.56;;;3.14;96.55
51239;BME280;38154;47.548;18.828;2023-03-01T01:54:58;99711.41;;;3.08;98.49
51239;BME280;38154;47.548;18.828;2023-03-01T01:57:47;99700.84;;;3.21;97.72
51239;BME280;38154;47.548;18.828;2023-03-01T02:00:15;99689.53;;;3.18;99.40
51239;BME280;38154;47.548;18.828;2023-03-01T02:02:43;99690.72;;;3.06;99.28
51239;BME280;38154;47.548;18.828;2023-03-01T02:07:42;99696.47;;;3.19;97.80
51239;BME280;38154;47.548;18.828;2023-03-01T02:10:09;99691.03;;;2.94;100.00
51239;BME280;38154;47.548;18.828;2023-03-01T02:12:36;99694.53;;;2.95;100.00
51239;BME280;38154;47.548;18.828;2023-03-01T02:15:04;99691.50;;;2.86;100.00
51239;BME280;38154;47.548;18.828;2023-03-01T02:17:30;99692.69;;;2.74;100.00
51239;BME280;38154;47.548;18.828;2023-03-01T02:22:32;99691.28;;;2.81;100.00
51239;BME280;38154;47.548;18.828;2023-03-01T02:30:32;99687.59;;;2.76;100.00
51239;BME280;38154;47.548;18.828;2023-03-01T02:33:00;99687.47;;;2.73;100.00
51239;BME280;38154;47.548;18.828;2023-03-01T02:35:34;99678.72;;;2.69;100.00
51239;BME280;38154;47.548;18.828;2023-03-01T02:38:01;99671.28;;;2.57;100.00
51239;BME280;38154;47.548;18.828;2023-03-01T02:40:30;99674.66;;;2.74;100.00
51239;BME280;38154;47.548;18.828;2023-03-01T02:42:58;99667.09;;;2.77;100.00
51239;BME280;38154;47.548;18.828;2023-03-01T02:45:26;99671.06;;;2.71;100.00
51239;BME280;38154;47.548;18.828;2023-03-01T02:47:56;99662.94;;;2.81;100.00
51239;BME280;38154;47.548;18.828;2023-03-01T02:55:58;99664.50;;;2.77;100.00
51239;BME280;38154;47.548;18.828;2023-03-01T02:58:24;99650.91;;;2.62;100.00
51239;BME280;38154;47.548;18.828;2023-03-01T03:00:51;99651.69;;;2.79;100.00
51239;BME280;38154;47.548;18.828;2023-03-01T03:03:17;99646.06;;;2.68;100.00
51239;BME280;38154;47.548;18.828;2023-03-01T03:05:44;99650.37;;;2.69;100.00
51239;BME280;38154;47.548;18.828;2023-03-01T03:08:10;99649.81;;;2.75;100.00
51239;BME280;38154;47.548;18.828;2023-03-01T03:10:39;99647.59;;;2.65;100.00
51239;BME280;38154;47.548;18.828;2023-03-01T03:13:10;99644.75;;;2.58;100.00
51239;BME280;38154;47.548;18.828;2023-03-01T03:15:37;99651.44;;;2.55;100.00
51239;BME280;38154;47.548;18.828;2023-03-01T03:18:07;99644.97;;;2.45;100.00
51239;BME280;38154;47.548;18.828;2023-03-01T03:20:33;99645.19;;;2.32;100.00
51239;BME280;38154;47.548;18.828;2023-03-01T03:23:00;99632.38;;;2.51;100.00
51239;BME280;38154;47.548;18.828;2023-03-01T03:25:27;99639.00;;;2.46;100.00
51239;BME280;38154;47.548;18.828;2023-03-01T03:27:54;99633.84;;;2.46;100.00
51239;BME280;38154;47.548;18.828;2023-03-01T03:30:25;99630.47;;;2.29;100.00
51239;BME280;38154;47.548;18.828;2023-03-01T03:32:52;99627.16;;;2.14;100.00
51239;BME280;38154;47.548;18.828;2023-03-01T03:35:29;99627.63;;;2.05;100.00
51239;BME280;38154;47.548;18.828;2023-03-01T03:37:57;99625.69;;;2.01;100.00
51239;BME280;38154;47.548;18.828;2023-03-01T03:40:45;99627.53;;;2.03;100.00
51239;BME280;38154;47.548;18.828;2023-03-01T03:43:22;99630.63;;;2.14;100.00
51239;BME280;38154;47.548;18.828;2023-03-01T03:45:49;99633.88;;;2.28;100.00
51239;BME280;38154;47.548;18.828;2023-03-01T03:48:16;99639.16;;;2.13;100.00
51239;BME280;38154;47.548;18.828;2023-03-01T03:50:47;99632.75;;;2.05;100.00
51239;BME280;38154;47.548;18.828;2023-03-01T03:53:13;99639.81;;;2.09;100.00
51239;BME280;38154;47.548;18.828;2023-03-01T03:55:39;99643.34;;;2.11;100.00
51239;BME280;38154;47.548;18.828;2023-03-01T03:58:08;99629.50;;;2.09;100.00
51239;BME280;38154;47.548;18.828;2023-03-01T04:00:40;99637.38;;;2.12;100.00
51239;BME280;38154;47.548;18.828;2023-03-01T04:03:09;99639.25;;;2.15;100.00
51239;BME280;38154;47.548;18.828;2023-03-01T04:05:36;99641.66;;;2.12;100.00
51239;BME280;38154;47.548;18.828;2023-03-01T04:08:02;99639.09;;;2.12;100.00
51239;BME280;38154;47.548;18.828;2023-03-01T04:10:33;99639.81;;;2.09;100.00
51239;BME280;38154;47.548;18.828;2023-03-01T04:12:59;99646.72;;;2.10;100.00
51239;BME280;38154;47.548;18.828;2023-03-01T04:15:26;99641.88;;;2.16;100.00
51239;BME280;38154;47.548;18.828;2023-03-01T04:17:52;99640.91;;;2.14;100.00
51239;BME280;38154;47.548;18.828;2023-03-01T04:20:21;99636.81;;;2.18;100.00
51239;BME280;38154;47.548;18.828;2023-03-01T04:22:52;99639.16;;;2.13;100.00
51239;BME280;38154;47.548;18.828;2023-03-01T04:25:19;99635.84;;;2.16;100.00
51239;BME280;38154;47.548;18.828;2023-03-01T04:27:45;99641.06;;;2.17;100.00
51239;BME280;38154;47.548;18.828;2023-03-01T04:30:11;99637.63;;;2.17;100.00
51239;BME280;38154;47.548;18.828;2023-03-01T04:32:37;99641.59;;;2.28;100.00
51239;BME280;38154;47.548;18.828;2023-03-01T04:35:03;99635.63;;;2.29;100.00
51239;BME280;38154;47.548;18.828;2023-03-01T04:37:28;99637.41;;;2.30;100.00
51239;BME280;38154;47.548;18.828;2023-03-01T04:39:55;99636.94;;;2.39;100.00
51239;BME280;38154;47.548;18.828;2023-03-01T04:42:21;99636.50;;;2.48;100.00
51239;BME280;38154;47.548;18.828;2023-03-01T04:44:47;99634.44;;;2.58;100.00
51239;BME280;38154;47.548;18.828;2023-03-01T04:47:12;99632.44;;;2.53;100.00
51239;BME280;38154;47.548;18.828;2023-03-01T04:49:38;99623.84;;;2.52;100.00
51239;BME280;38154;47.548;18.828;2023-03-01T04:52:04;99628.28;;;2.55;100.00
51239;BME280;38154;47.548;18.828;2023-03-01T04:54:32;99625.41;;;2.67;100.00
51239;BME280;38154;47.548;18.828;2023-03-01T04:56:58;99619.00;;;2.58;100.00
51239;BME280;38154;47.548;18.828;2023-03-01T04:59:24;99621.56;;;2.58;100.00
51239;BME280;38154;47.548;18.828;2023-03-01T05:01:52;99617.91;;;2.53;100.00
51239;BME280;38154;47.548;18.828;2023-03-01T05:04:18;99627.22;;;2.51;100.00
51239;BME280;38154;47.548;18.828;2023-03-01T05:06:44;99627.09;;;2.48;100.00
51239;BME280;38154;47.548;18.828;2023-03-01T05:09:10;99621.28;;;2.52;100.00
51239;BME280;38154;47.548;18.828;2023-03-01T05:11:37;99631.56;;;2.52;100.00
51239;BME280;38154;47.548;18.828;2023-03-01T05:14:06;99621.25;;;2.70;100.00
51239;BME280;38154;47.548;18.828;2023-03-01T05:16:33;99631.56;;;2.90;100.00
51239;BME280;38154;47.548;18.828;2023-03-01T05:18:59;99631.47;;;3.06;100.00
51239;BME280;38154;47.548;18.828;2023-03-01T05:21:25;99636.88;;;2.93;100.00
51239;BME280;38154;47.548;18.828;2023-03-01T05:23:52;99633.28;;;2.89;100.00
51239;BME280;38154;47.548;18.828;2023-03-01T05:26:19;99631.03;;;2.77;100.00
51239;BME280;38154;47.548;18.828;2023-03-01T05:28:47;99630.66;;;2.70;100.00
51239;BME280;38154;47.548;18.828;2023-03-01T05:31:13;99632.72;;;2.77;100.00
51239;BME280;38154;47.548;18.828;2023-03-01T05:33:40;99642.50;;;2.84;100.00
51239;BME280;38154;47.548;18.828;2023-03-01T05:36:07;99639.44;;;2.73;100.00
51239;BME280;38154;47.548;18.828;2023-03-01T05:38:35;99635.22;;;2.75;100.00
51239;BME280;38154;47.548;18.828;2023-03-01T05:41:01;99641.09;;;2.73;100.00
51239;BME280;38154;47.548;18.828;2023-03-01T05:43:31;99640.00;;;2.68;100.00
51239;BME280;38154;47.548;18.828;2023-03-01T05:46:00;99638.03;;;2.62;100.00
51239;BME280;38154;47.548;18.828;2023-03-01T05:48:25;99646.69;;;2.82;100.00
51239;BME280;38154;47.548;18.828;2023-03-01T05:50:51;99641.63;;;2.84;100.00
51239;BME280;38154;47.548;18.828;2023-03-01T05:53:19;99651.25;;;2.88;100.00
51239;BME280;38154;47.548;18.828;2023-03-01T05:55:47;99646.84;;;2.85;100.00
51239;BME280;38154;47.548;18.828;2023-03-01T05:58:16;99654.12;;;2.76;100.00
51239;BME280;38154;47.548;18.828;2023-03-01T06:00:43;99653.78;;;2.68;100.00
51239;BME280;38154;47.548;18.828;2023-03-01T06:03:11;99651.88;;;2.64;100.00
51239;BME280;38154;47.548;18.828;2023-03-01T06:05:38;99647.09;;;2.72;100.00
51239;BME280;38154;47.548;18.828;2023-03-01T06:08:05;99648.75;;;2.71;100.00
51239;BME280;38154;47.548;18.828;2023-03-01T06:10:31;99646.00;;;2.67;100.00
51239;BME280;38154;47.548;18.828;2023-03-01T06:12:57;99647.66;;;2.66;100.00
51239;BME280;38154;47.548;18.828;2023-03-01T06:15:24;99645.09;;;2.66;100.00
51239;BME280;38154;47.548;18.828;2023-03-01T06:17:51;99649.44;;;2.67;100.00
51239;BME280;38154;47.548;18.828;2023-03-01T06:20:22;99646.41;;;2.76;100.00
51239;BME280;38154;47.548;18.828;2023-03-01T06:22:48;99642.34;;;2.81;100.00
51239;BME280;38154;47.548;18.828;2023-03-01T06:25:17;99648.25;;;2.98;100.00
51239;BME280;38154;47.548;18.828;2023-03-01T06:27:44;99646.34;;;3.12;100.00
51239;BME280;38154;47.548;18.828;2023-03-01T06:30:12;99646.34;;;3.12;100.00
51239;BME280;38154;47.548;18.828;2023-03-01T06:32:40;99649.56;;;3.08;100.00
51239;BME280;38154;47.548;18.828;2023-03-01T06:35:10;99651.34;;;3.09;100.00
51239;BME280;38154;47.548;18.828;2023-03-01T06:37:37;99647.22;;;3.12;100.00
51239;BME280;38154;47.548;18.828;2023-03-01T06:40:06;99655.34;;;3.22;100.00
51239;BME280;38154;47.548;18.828;2023-03-01T06:42:38;99657.25;;;3.26;100.00
51239;BME280;38154;47.548;18.828;2023-03-01T06:45:05;99662.22;;;3.41;100.00
51239;BME280;38154;47.548;18.828;2023-03-01T06:47:32;99663.09;;;3.41;100.00
51239;BME280;38154;47.548;18.828;2023-03-01T06:50:00;99662.28;;;3.42;100.00
51239;BME280;38154;47.548;18.828;2023-03-01T06:52:25;99667.47;;;3.63;100.00
51239;BME280;38154;47.548;18.828;2023-03-01T06:54:51;99671.34;;;3.73;99.29
51239;BME280;38154;47.548;18.828;2023-03-01T06:57:17;99666.66;;;3.84;100.00
51239;BME280;38154;47.548;18.828;2023-03-01T06:59:43;99670.19;;;3.86;97.43
51239;BME280;38154;47.548;18.828;2023-03-01T07:02:11;99675.41;;;3.87;99.52
51239;BME280;38154;47.548;18.828;2023-03-01T07:04:38;99670.78;;;3.80;100.00
51239;BME280;38154;47.548;18.828;2023-03-01T07:07:04;99677.09;;;3.87;100.00
51239;BME280;38154;47.548;18.828;2023-03-01T07:09:30;99681.44;;;3.88;100.00
51239;BME280;38154;47.548;18.828;2023-03-01T07:11:56;99677.84;;;3.84;100.00
51239;BME280;38154;47.548;18.828;2023-03-01T07:14:22;99677.66;;;3.80;100.00
51239;BME280;38154;47.548;18.828;2023-03-01T07:16:50;99684.75;;;3.85;100.00
51239;BME280;38154;47.548;18.828;2023-03-01T07:19:16;99680.50;;;3.86;100.00
51239;BME280;38154;47.548;18.828;2023-03-01T07:21:42;99692.47;;;3.84;100.00
51239;BME280;38154;47.548;18.828;2023-03-01T07:24:08;99680.75;;;3.92;100.00
51239;BME280;38154;47.548;18.828;2023-03-01T07:26:34;99687.50;;;4.09;98.72
51239;BME280;38154;47.548;18.828;2023-03-01T07:29:04;99685.69;;;4.28;99.46
51239;BME280;38154;47.548;18.828;2023-03-01T07:31:30;99686.75;;;4.33;95.92
51239;BME280;38154;47.548;18.828;2023-03-01T07:33:56;99683.72;;;4.43;94.84
51239;BME280;38154;47.548;18.828;2023-03-01T07:36:23;99678.03;;;4.52;93.94
51239;BME280;38154;47.548;18.828;2023-03-01T07:38:49;99683.34;;;4.55;92.67
51239;BME280;38154;47.548;18.828;2023-03-01T07:41:16;99673.53;;;4.69;92.04
51239;BME280;38154;47.548;18.828;2023-03-01T07:43:42;99672.56;;;4.88;93.66
51239;BME280;38154;47.548;18.828;2023-03-01T07:46:07;99668.97;;;5.30;93.01
51239;BME280;38154;47.548;18.828;2023-03-01T07:48:34;99671.44;;;5.51;91.23
51239;BME280;38154;47.548;18.828;2023-03-01T07:51:01;99674.78;;;5.72;88.55
51239;BME280;38154;47.548;18.828;2023-03-01T07:53:28;99669.00;;;5.80;88.63
51239;BME280;38154;47.548;18.828;2023-03-01T07:56:11;99667.94;;;5.74;86.46
51239;BME280;38154;47.548;18.828;2023-03-01T07:58:40;99667.13;;;5.75;86.54
51239;BME280;38154;47.548;18.828;2023-03-01T08:01:07;99667.06;;;5.74;84.88
51239;BME280;38154;47.548;18.828;2023-03-01T08:03:34;99660.88;;;5.94;83.14
51239;BME280;38154;47.548;18.828;2023-03-01T08:06:05;99659.16;;;6.19;83.22
51239;BME280;38154;47.548;18.828;2023-03-01T08:08:31;99659.16;;;6.46;82.80
51239;BME280;38154;47.548;18.828;2023-03-01T08:10:58;99657.44;;;6.74;80.19
51239;BME280;38154;47.548;18.828;2023-03-01T08:13:24;99655.41;;;6.93;78.73
51239;BME280;38154;47.548;18.828;2023-03-01T08:15:50;99663.03;;;6.88;78.39
51239;BME280;38154;47.548;18.828;2023-03-01T08:18:17;99664.00;;;6.92;77.95
51239;BME280;38154;47.548;18.828;2023-03-01T08:20:43;99665.28;;;7.04;76.36
51239;BME280;38154;47.548;18.828;2023-03-01T08:23:09;99655.69;;;6.73;75.33
51239;BME280;38154;47.548;18.828;2023-03-01T08:25:35;99650.41;;;6.99;78.37
51239;BME280;38154;47.548;18.828;2023-03-01T08:28:01;99653.62;;;7.20;78.85
51239;BME280;38154;47.548;18.828;2023-03-01T08:30:27;99650.87;;;7.14;75.75
51239;BME280;38154;47.548;18.828;2023-03-01T08:32:53;99652.41;;;7.08;75.58
51239;BME280;38154;47.548;18.828;2023-03-01T08:35:20;99651.00;;;6.90;75.51
51239;BME280;38154;47.548;18.828;2023-03-01T08:37:46;99651.59;;;7.10;76.90
51239;BME280;38154;47.548;18.828;2023-03-01T08:40:12;99647.03;;;7.32;76.54
51239;BME280;38154;47.548;18.828;2023-03-01T08:42:42;99651.53;;;7.39;74.78
51239;BME280;38154;47.548;18.828;2023-03-01T08:45:12;99643.72;;;8.03;73.93
51239;BME280;38154;47.548;18.828;2023-03-01T08:47:39;99654.62;;;8.21;71.92
51239;BME280;38154;47.548;18.828;2023-03-01T08:50:05;99649.81;;;8.38;70.27
51239;BME280;38154;47.548;18.828;2023-03-01T08:52:32;99654.12;;;8.38;70.93
51239;BME280;38154;47.548;18.828;2023-03-01T08:54:58;99641.91;;;8.68;69.01
51239;BME280;38154;47.548;18.828;2023-03-01T08:57:26;99636.19;;;9.26;66.25
51239;BME280;38154;47.548;18.828;2023-03-01T08:59:52;99627.28;;;9.57;64.83
51239;BME280;38154;47.548;18.828;2023-03-01T09:02:21;99626.69;;;9.72;64.21
51239;BME280;38154;47.548;18.828;2023-03-01T09:04:47;99625.03;;;10.28;60.98
51239;BME280;38154;47.548;18.828;2023-03-01T09:07:13;99627.22;;;10.55;57.69
51239;BME280;38154;47.548;18.828;2023-03-01T09:09:39;99625.59;;;11.27;55.40
51239;BME280;38154;47.548;18.828;2023-03-01T09:12:05;99622.38;;;12.45;53.15
51239;BME280;38154;47.548;18.828;2023-03-01T09:14:31;99614.84;;;12.93;51.90
51239;BME280;38154;47.548;18.828;2023-03-01T09:16:57;99616.69;;;13.09;49.50
51239;BME280;38154;47.548;18.828;2023-03-01T09:19:23;99611.75;;;14.09;48.02
51239;BME280;38154;47.548;18.828;2023-03-01T09:21:49;99614.28;;;14.96;46.09
51239;BME280;38154;47.548;18.828;2023-03-01T09:24:22;99609.78;;;15.27;45.52
51239;BME280;38154;47.548;18.828;2023-03-01T09:26:49;99608.94;;;15.24;44.74
51239;BME280;38154;47.548;18.828;2023-03-01T09:29:15;99602.81;;;15.20;44.03
51239;BME280;38154;47.548;18.828;2023-03-01T09:31:41;99609.94;;;14.87;44.77
51239;BME280;38154;47.548;18.828;2023-03-01T09:34:08;99600.34;;;14.72;45.26
51239;BME280;38154;47.548;18.828;2023-03-01T09:36:34;99594.22;;;14.04;47.10
51239;BME280;38154;47.548;18.828;2023-03-01T09:39:01;99583.75;;;13.93;47.69
51239;BME280;38154;47.548;18.828;2023-03-01T09:42:11;99584.63;;;14.12;45.74
51239;BME280;38154;47.548;18.828;2023-03-01T09:45:03;99581.94;;;13.57;49.09
51239;BME280;38154;47.548;18.828;2023-03-01T09:47:34;99578.44;;;13.47;48.78
51239;BME280;38154;47.548;18.828;2023-03-01T09:50:16;99580.88;;;13.05;49.64
51239;BME280;38154;47.548;18.828;2023-03-01T09:55:32;99570.00;;;12.34;51.89
51239;BME280;38154;47.548;18.828;2023-03-01T09:58:46;99565.66;;;12.35;52.42
51239;BME280;38154;47.548;18.828;2023-03-01T10:00:51;99564.63;;;12.13;53.19
51239;BME280;38154;47.548;18.828;2023-03-01T10:03:25;99568.09;;;12.13;52.96
51239;BME280;38154;47.548;18.828;2023-03-01T10:06:15;99558.41;;;11.95;53.90
51239;BME280;38154;47.548;18.828;2023-03-01T10:11:28;99574.84;;;11.86;55.06
51239;BME280;38154;47.548;18.828;2023-03-01T10:16:42;99567.06;;;11.91;53.06
51239;BME280;38154;47.548;18.828;2023-03-01T10:19:16;99568.75;;;11.87;55.14
51239;BME280;38154;47.548;18.828;2023-03-01T10:21:44;99564.06;;;12.55;52.21
51239;BME280;38154;47.548;18.828;2023-03-01T10:24:14;99566.09;;;13.20;51.43
51239;BME280;38154;47.548;18.828;2023-03-01T10:26:57;99550.47;;;13.38;48.77
51239;BME280;38154;47.548;18.828;2023-03-01T10:29:37;99550.53;;;13.66;48.12
51239;BME280;38154;47.548;18.828;2023-03-01T10:32:04;99535.66;;;13.97;47.30
51239;BME280;38154;47.548;18.828;2023-03-01T10:34:34;99536.50;;;14.44;47.65
51239;BME280;38154;47.548;18.828;2023-03-01T10:37:13;99531.28;;;14.36;48.11
51239;BME280;38154;47.548;18.828;2023-03-01T10:39:58;99520.78;;;13.61;47.40
51239;BME280;38154;47.548;18.828;2023-03-01T10:42:30;99520.56;;;12.84;49.12
51239;BME280;38154;47.548;18.828;2023-03-01T10:44:57;99515.44;;;13.08;49.48
51239;BME280;38154;47.548;18.828;2023-03-01T10:47:24;99519.81;;;13.20;49.03
51239;BME280;38154;47.548;18.828;2023-03-01T10:50:02;99516.28;;;13.03;48.08
51239;BME280;38154;47.548;18.828;2023-03-01T10:52:36;99511.22;;;13.61;48.01
51239;BME280;38154;47.548;18.828;2023-03-01T10:57:41;99495.41;;;14.35;49.67
51239;BME280;38154;47.548;18.828;2023-03-01T11:02:49;99488.63;;;15.72;45.32
51239;BME280;38154;47.548;18.828;2023-03-01T11:05:21;99488.81;;;16.45;41.39
51239;BME280;38154;47.548;18.828;2023-03-01T11:07:58;99493.94;;;16.56;41.53
51239;BME280;38154;47.548;18.828;2023-03-01T11:10:30;99486.41;;;17.61;40.41
51239;BME280;38154;47.548;18.828;2023-03-01T11:13:18;99495.28;;;18.57;38.25
51239;BME280;38154;47.548;18.828;2023-03-01T11:16:02;99490.28;;;17.95;39.30
51239;BME280;38154;47.548;18.828;2023-03-01T11:18:30;99490.16;;;16.78;40.43
51239;BME280;38154;47.548;18.828;2023-03-01T11:20:56;99489.38;;;15.89;41.37
51239;BME280;38154;47.548;18.828;2023-03-01T11:23:25;99483.97;;;14.69;44.54
51239;BME280;38154;47.548;18.828;2023-03-01T11:25:59;99483.22;;;14.08;46.07
51239;BME280;38154;47.548;18.828;2023-03-01T11:28:28;99476.25;;;13.98;46.52
51239;BME280;38154;47.548;18.828;2023-03-01T11:39:05;99471.03;;;13.58;48.83
51239;BME280;38154;47.548;18.828;2023-03-01T11:41:39;99475.37;;;13.62;48.35
51239;BME280;38154;47.548;18.828;2023-03-01T11:44:18;99478.00;;;13.45;49.39
51239;BME280;38154;47.548;18.828;2023-03-01T11:52:21;99475.13;;;12.60;52.66
51239;BME280;38154;47.548;18.828;2023-03-01T11:55:46;99476.69;;;12.25;53.43
51239;BME280;38154;47.548;18.828;2023-03-01T12:03:32;99461.31;;;11.49;51.87
51239;BME280;38154;47.548;18.828;2023-03-01T12:14:44;99461.88;;;11.17;54.44
51239;BME280;38154;47.548;18.828;2023-03-01T12:22:59;99448.03;;;11.26;54.27
51239;BME280;38154;47.548;18.828;2023-03-01T12:30:52;99435.16;;;11.47;54.18
51239;BME280;38154;47.548;18.828;2023-03-01T12:33:54;99432.38;;;11.27;54.51
51239;BME280;38154;47.548;18.828;2023-03-01T12:39:16;99435.56;;;10.97;54.61
51239;BME280;38154;47.548;18.828;2023-03-01T12:42:08;99432.91;;;10.92;54.75
51239;BME280;38154;47.548;18.828;2023-03-01T12:44:53;99427.75;;;10.97;54.93
51239;BME280;38154;47.548;18.828;2023-03-01T12:50:11;99420.25;;;11.34;53.27
51239;BME280;38154;47.548;18.828;2023-03-01T12:53:00;99416.75;;;11.30;53.79
51239;BME280;38154;47.548;18.828;2023-03-01T12:55:41;99415.94;;;11.38;54.62
51239;BME280;38154;47.548;18.828;2023-03-01T13:03:42;99416.00;;;11.45;53.61
51239;BME280;38154;47.548;18.828;2023-03-01T13:06:37;99415.97;;;11.41;53.30
51239;BME280;38154;47.548;18.828;2023-03-01T13:11:48;99412.59;;;11.56;52.92
51239;BME280;38154;47.548;18.828;2023-03-01T13:16:47;99417.44;;;11.08;54.38
51239;BME280;38154;47.548;18.828;2023-03-01T13:19:17;99415.59;;;10.99;55.48
51239;BME280;38154;47.548;18.828;2023-03-01T13:21:47;99405.13;;;10.98;55.12
51239;BME280;38154;47.548;18.828;2023-03-01T13:29:53;99398.09;;;11.93;53.88
51239;BME280;38154;47.548;18.828;2023-03-01T13:32:27;99385.78;;;11.83;53.90
51239;BME280;38154;47.548;18.828;2023-03-01T13:37:37;99383.16;;;11.75;52.32
51239;BME280;38154;47.548;18.828;2023-03-01T13:42:53;99383.44;;;12.28;52.11
51239;BME280;38154;47.548;18.828;2023-03-01T13:45:38;99379.94;;;12.24;53.01
51239;BME280;38154;47.548;18.828;2023-03-01T13:48:11;99378.09;;;11.98;52.25
51239;BME280;38154;47.548;18.828;2023-03-01T13:51:02;99374.53;;;11.90;52.52
51239;BME280;38154;47.548;18.828;2023-03-01T13:53:38;99368.25;;;11.60;55.02
51239;BME280;38154;47.548;18.828;2023-03-01T13:56:12;99359.50;;;11.57;54.24
51239;BME280;38154;47.548;18.828;2023-03-01T13:58:55;99352.22;;;11.16;56.73
51239;BME280;38154;47.548;18.828;2023-03-01T14:01:35;99350.25;;;10.88;56.41
51239;BME280;38154;47.548;18.828;2023-03-01T14:04:01;99355.19;;;10.61;56.90
51239;BME280;38154;47.548;18.828;2023-03-01T14:06:30;99354.81;;;10.28;59.21
51239;BME280;38154;47.548;18.828;2023-03-01T14:09:09;99352.00;;;10.11;60.14
51239;BME280;38154;47.548;18.828;2023-03-01T14:14:38;99352.06;;;9.53;60.15
51239;BME280;38154;47.548;18.828;2023-03-01T14:19:56;99337.97;;;9.37;61.38
51239;BME280;38154;47.548;18.828;2023-03-01T14:22:25;99334.53;;;9.40;61.63
51239;BME280;38154;47.548;18.828;2023-03-01T14:24:58;99332.91;;;9.48;62.17
51239;BME280;38154;47.548;18.828;2023-03-01T14:27:36;99326.75;;;9.41;62.39
51239;BME280;38154;47.548;18.828;2023-03-01T14:30:15;99331.22;;;9.52;62.91
51239;BME280;38154;47.548;18.828;2023-03-01T14:32:52;99319.12;;;9.54;61.93
51239;BME280;38154;47.548;18.828;2023-03-01T14:35:21;99315.72;;;9.58;61.58
51239;BME280;38154;47.548;18.828;2023-03-01T14:37:47;99318.34;;;9.61;62.78
51239;BME280;38154;47.548;18.828;2023-03-01T14:40:30;99315.81;;;9.64;61.87
51239;BME280;38154;47.548;18.828;2023-03-01T14:42:59;99320.03;;;9.57;62.22
51239;BME280;38154;47.548;18.828;2023-03-01T14:45:29;99313.94;;;9.57;62.40
51239;BME280;38154;47.548;18.828;2023-03-01T14:48:00;99315.63;;;9.53;63.12